Time;durP1;ratioP1;P1;durP2;ratioP2;P2;SDS_P1;SDS_P2;PMS_P1;PMS_P2;Temp;Humidity;BMP_temperature;BMP_pressure;BME280_temperature;BME280_humidity;BME280_pressure;Samples;Min_cycle;Max_cycle;Signal;HPM_P1;HPM_P2
2022/04/09 00:00:52;;;;;;;15.27;4.35;;;;;;;3.35;100.00;99965.00;5002778;28;20064;-82
2022/04/09 00:03:17;;;;;;;16.10;4.35;;;;;;;3.22;100.00;99962.19;4987837;28;20073;-82
2022/04/09 00:05:43;;;;;;;22.92;4.95;;;;;;;3.06;100.00;99961.41;4974541;28;20398;-82
2022/04/09 00:08:08;;;;;;;6.97;2.00;;;;;;;2.97;100.00;99970.47;4977347;28;20041;-83
2022/04/09 00:10:34;;;;;;;7.43;1.60;;;;;;;2.92;100.00;99972.88;4994880;28;20151;-82
2022/04/09 00:13:00;;;;;;;7.80;1.40;;;;;;;2.93;100.00;99977.19;4987371;28;22292;-83
2022/04/09 00:15:25;;;;;;;10.73;1.65;;;;;;;2.93;100.00;99987.00;4970987;28;20073;-83
2022/04/09 00:17:51;;;;;;;11.82;1.75;;;;;;;2.86;100.00;99987.72;4990257;28;20084;-82
2022/04/09 00:20:18;;;;;;;8.52;1.40;;;;;;;2.80;100.00;99992.97;4980067;28;20064;-83
2022/04/09 00:22:44;;;;;;;10.93;1.92;;;;;;;2.76;100.00;99997.81;4997949;28;20026;-82
2022/04/09 00:25:12;;;;;;;9.43;2.28;;;;;;;2.61;100.00;99986.34;4996005;28;20170;-82
2022/04/09 00:27:37;;;;;;;13.73;2.13;;;;;;;2.58;100.00;100000.81;5004913;28;20112;-82
2022/04/09 00:30:05;;;;;;;16.60;3.08;;;;;;;2.53;100.00;100000.56;5011768;28;20123;-83
2022/04/09 00:32:30;;;;;;;17.13;3.08;;;;;;;2.52;100.00;100011.34;5006765;28;20060;-82
2022/04/09 00:34:56;;;;;;;12.20;2.50;;;;;;;2.58;100.00;100018.63;5006619;28;20101;-82
2022/04/09 00:37:21;;;;;;;18.90;3.28;;;;;;;2.69;100.00;100015.50;4999715;28;20065;-83
2022/04/09 00:39:47;;;;;;;13.02;3.10;;;;;;;2.94;100.00;100020.56;5008494;28;20030;-83
2022/04/09 00:42:17;;;;;;;13.27;3.67;;;;;;;3.15;100.00;100011.84;4961898;28;20061;-81
2022/04/09 00:44:43;;;;;;;18.02;5.47;;;;;;;3.28;100.00;100014.69;4967409;28;20207;-81
2022/04/09 00:47:11;;;;;;;26.55;5.43;;;;;;;3.35;100.00;100020.91;4943376;28;22382;-81
2022/04/09 00:49:37;;;;;;;12.10;1.90;;;;;;;3.32;100.00;100031.94;4985322;28;20025;-81
2022/04/09 00:52:04;;;;;;;14.18;2.78;;;;;;;3.21;100.00;100032.41;4985246;28;20041;-81
2022/04/09 00:54:34;;;;;;;18.67;3.08;;;;;;;3.18;100.00;100032.78;4930723;28;20595;-81
2022/04/09 00:57:02;;;;;;;15.10;2.85;;;;;;;3.10;100.00;100036.34;5001141;28;20041;-82
2022/04/09 00:59:29;;;;;;;12.10;2.85;;;;;;;3.05;100.00;100038.72;4977832;28;20100;-83
2022/04/09 01:01:55;;;;;;;17.65;2.97;;;;;;;3.04;100.00;100048.56;4989070;28;20033;-82
2022/04/09 01:04:20;;;;;;;13.23;2.55;;;;;;;2.99;100.00;100048.28;4978481;28;20589;-82
2022/04/09 01:06:46;;;;;;;15.00;2.95;;;;;;;2.94;100.00;100044.50;5000482;28;20029;-82
2022/04/09 01:09:12;;;;;;;14.95;2.78;;;;;;;2.94;100.00;100055.97;4976798;28;20104;-82
2022/04/09 01:11:39;;;;;;;15.30;2.80;;;;;;;2.94;100.00;100052.50;4983079;28;20320;-81
2022/04/09 01:14:04;;;;;;;14.77;2.80;;;;;;;2.83;100.00;100062.56;4978563;28;21140;-81
2022/04/09 01:16:30;;;;;;;18.60;2.95;;;;;;;2.86;100.00;100072.03;4961055;28;20157;-82
2022/04/09 01:18:58;;;;;;;14.20;2.60;;;;;;;2.85;100.00;100071.22;4985872;28;20034;-82
2022/04/09 01:21:24;;;;;;;16.40;2.55;;;;;;;2.82;100.00;100065.44;4984888;28;20052;-82
2022/04/09 01:23:50;;;;;;;16.50;2.97;;;;;;;2.93;100.00;100083.59;4972458;28;20140;-82
2022/04/09 01:26:16;;;;;;;17.00;5.20;;;;;;;3.15;100.00;100099.66;4982212;28;20045;-82
2022/04/09 01:28:42;;;;;;;29.13;7.80;;;;;;;3.30;100.00;100103.16;4980577;28;20498;-78
2022/04/09 01:31:08;;;;;;;33.33;9.93;;;;;;;3.33;100.00;100108.13;4932429;28;20045;-79
2022/04/09 01:33:33;;;;;;;35.90;11.00;;;;;;;3.25;100.00;100098.38;4965759;28;20072;-80
2022/04/09 01:35:59;;;;;;;42.92;11.90;;;;;;;3.21;100.00;100106.94;4930551;28;20089;-79
2022/04/09 01:38:24;;;;;;;34.20;10.45;;;;;;;3.05;100.00;100108.75;4953963;28;20054;-80
2022/04/09 01:40:49;;;;;;;44.88;13.18;;;;;;;2.87;100.00;100108.25;4975315;28;20060;-80
2022/04/09 01:43:15;;;;;;;37.03;14.27;;;;;;;2.68;100.00;100122.06;4959572;28;20053;-80
2022/04/09 01:45:41;;;;;;;31.92;7.32;;;;;;;2.48;100.00;100127.03;4971835;28;20048;-80
2022/04/09 01:48:06;;;;;;;20.83;4.65;;;;;;;2.35;100.00;100119.66;4954976;28;21111;-80
2022/04/09 01:50:32;;;;;;;17.52;3.25;;;;;;;2.30;100.00;100119.38;4967582;28;21113;-80
2022/04/09 01:52:58;;;;;;;9.82;2.83;;;;;;;2.28;100.00;100132.00;4953271;28;20111;-79
2022/04/09 01:55:23;;;;;;;18.75;3.50;;;;;;;2.31;100.00;100135.13;4967502;28;20113;-78
2022/04/09 01:57:49;;;;;;;13.38;2.90;;;;;;;2.42;100.00;100144.50;4964065;28;20554;-79
2022/04/09 02:00:16;;;;;;;11.73;2.65;;;;;;;2.41;100.00;100137.56;4946425;28;20064;-80
2022/04/09 02:02:41;;;;;;;12.13;2.63;;;;;;;2.34;100.00;100137.44;4978334;28;20088;-80
2022/04/09 02:05:08;;;;;;;15.05;3.00;;;;;;;2.37;100.00;100147.72;4953491;28;20108;-80
2022/04/09 02:07:35;;;;;;;12.93;3.00;;;;;;;2.46;100.00;100148.50;4965107;28;20040;-78
2022/04/09 02:10:02;;;;;;;12.10;2.17;;;;;;;2.58;100.00;100152.38;4947769;28;20166;-77
2022/04/09 02:12:31;;;;;;;26.15;7.18;;;;;;;2.90;100.00;100173.59;4968534;28;20099;-80
2022/04/09 02:14:56;;;;;;;28.60;7.63;;;;;;;3.14;100.00;100164.56;4954922;28;20033;-81
2022/04/09 02:17:22;;;;;;;30.13;8.18;;;;;;;3.15;100.00;100166.19;4966368;28;20532;-81
2022/04/09 02:19:47;;;;;;;32.42;9.48;;;;;;;3.15;100.00;100176.84;4967674;28;20063;-81
2022/04/09 02:22:12;;;;;;;38.40;12.13;;;;;;;3.13;100.00;100178.88;4973653;28;20135;-82
2022/04/09 02:24:40;;;;;;;39.75;11.73;;;;;;;2.98;100.00;100181.47;4990936;28;20049;-82
2022/04/09 02:27:06;;;;;;;31.13;9.13;;;;;;;2.78;100.00;100181.16;4995549;28;20050;-83
2022/04/09 02:29:31;;;;;;;20.17;5.45;;;;;;;2.63;100.00;100187.25;5011839;28;20037;-84
2022/04/09 02:31:57;;;;;;;16.08;2.70;;;;;;;2.43;100.00;100183.41;5004716;28;20138;-82
2022/04/09 02:34:23;;;;;;;12.73;2.53;;;;;;;2.22;100.00;100181.38;5016400;28;20109;-82
2022/04/09 02:36:49;;;;;;;17.67;2.45;;;;;;;2.15;100.00;100191.88;5020145;28;20478;-83
2022/04/09 02:39:17;;;;;;;13.65;2.45;;;;;;;2.22;100.00;100199.16;5008084;28;20037;-82
2022/04/09 02:41:43;;;;;;;20.88;2.63;;;;;;;2.23;100.00;100206.09;5020265;28;20041;-81
2022/04/09 02:44:08;;;;;;;17.88;2.28;;;;;;;2.22;100.00;100212.44;5007935;28;20049;-81
2022/04/09 02:46:34;;;;;;;17.88;3.05;;;;;;;2.26;100.00;100213.75;5024484;28;20036;-82
2022/04/09 02:49:00;;;;;;;14.20;2.67;;;;;;;2.48;100.00;100218.25;5012767;28;20324;-82
2022/04/09 02:51:25;;;;;;;33.55;8.77;;;;;;;2.87;100.00;100225.31;5019928;28;20259;-83
2022/04/09 02:53:51;;;;;;;24.77;7.22;;;;;;;3.09;100.00;100221.81;4961031;28;20144;-80
2022/04/09 02:56:16;;;;;;;35.13;8.73;;;;;;;3.11;100.00;100211.81;4967116;28;20036;-79
2022/04/09 02:58:42;;;;;;;24.40;9.25;;;;;;;3.04;100.00;100218.84;4975402;28;20471;-80
2022/04/09 03:01:07;;;;;;;12.02;2.70;;;;;;;2.92;100.00;100220.28;4969216;28;20045;-79
2022/04/09 03:03:32;;;;;;;14.48;3.40;;;;;;;2.76;100.00;100218.56;4981460;28;20041;-80
2022/04/09 03:05:58;;;;;;;18.80;4.40;;;;;;;2.60;100.00;100216.84;4973981;28;20580;-80
2022/04/09 03:08:23;;;;;;;18.02;2.97;;;;;;;2.53;100.00;100218.56;4994299;28;20045;-80
2022/04/09 03:10:49;;;;;;;11.70;2.35;;;;;;;2.45;100.00;100223.91;4980173;28;20125;-80
2022/04/09 03:13:14;;;;;;;9.75;1.85;;;;;;;2.44;100.00;100222.25;4999367;28;20033;-80
2022/04/09 03:15:41;;;;;;;10.88;2.13;;;;;;;2.42;100.00;100228.75;4986027;28;20029;-81
2022/04/09 03:18:09;;;;;;;10.60;1.58;;;;;;;2.40;100.00;100231.59;4951125;28;20222;-80
2022/04/09 03:20:34;;;;;;;10.40;1.70;;;;;;;2.36;100.00;100241.75;4989740;28;20033;-80
2022/04/09 03:22:59;;;;;;;9.40;1.63;;;;;;;2.24;100.00;100247.63;4975675;28;20049;-80
2022/04/09 03:25:25;;;;;;;12.00;2.25;;;;;;;2.08;100.00;100244.03;4992527;28;20037;-80
2022/04/09 03:27:50;;;;;;;11.55;1.92;;;;;;;2.11;100.00;100254.31;4970634;28;20048;-80
2022/04/09 03:30:16;;;;;;;8.90;1.77;;;;;;;2.15;100.00;100260.94;4988106;28;20033;-80
2022/04/09 03:32:42;;;;;;;22.65;2.42;;;;;;;2.03;100.00;100275.59;4968751;28;20052;-80
2022/04/09 03:35:09;;;;;;;16.95;2.45;;;;;;;1.91;100.00;100269.00;4986668;28;20246;-80
2022/04/09 03:37:36;;;;;;;16.55;2.42;;;;;;;1.84;100.00;100270.69;4988535;28;20036;-80
2022/04/09 03:40:04;;;;;;;14.13;2.97;;;;;;;1.81;100.00;100263.06;4959320;28;20144;-80
2022/04/09 03:42:30;;;;;;;7.65;1.85;;;;;;;1.81;100.00;100263.88;4976289;28;20036;-80
2022/04/09 03:44:55;;;;;;;15.60;2.92;;;;;;;1.92;100.00;100260.03;4962150;28;20076;-80
2022/04/09 03:47:20;;;;;;;18.63;3.05;;;;;;;2.11;100.00;100275.59;4986133;28;20045;-80
2022/04/09 03:49:46;;;;;;;17.08;2.97;;;;;;;2.22;100.00;100270.91;4956835;28;20139;-79
2022/04/09 03:52:11;;;;;;;14.25;2.70;;;;;;;2.18;100.00;100274.88;4985364;28;20042;-80
2022/04/09 03:54:38;;;;;;;11.70;2.40;;;;;;;2.11;100.00;100280.06;4983768;28;20483;-80
2022/04/09 03:57:04;;;;;;;13.30;2.90;;;;;;;2.09;100.00;100282.88;4984716;28;20041;-80
2022/04/09 03:59:29;;;;;;;7.43;2.08;;;;;;;2.15;100.00;100276.06;4987859;28;20040;-80
2022/04/09 04:01:55;;;;;;;15.20;2.53;;;;;;;2.17;100.00;100283.84;4968504;28;20064;-80
2022/04/09 04:04:21;;;;;;;16.50;2.38;;;;;;;2.09;100.00;100282.88;4983172;28;20061;-80
2022/04/09 04:06:48;;;;;;;12.40;2.22;;;;;;;2.08;100.00;100286.56;4955851;28;20053;-80
2022/04/09 04:09:16;;;;;;;20.65;2.70;;;;;;;2.07;100.00;100286.69;4986265;28;20102;-78
2022/04/09 04:11:45;;;;;;;20.02;2.53;;;;;;;1.97;100.00;100291.41;4955526;28;20065;-79
2022/04/09 04:14:11;;;;;;;16.17;3.15;;;;;;;1.91;100.00;100300.88;4970399;28;20036;-78
2022/04/09 04:16:37;;;;;;;14.55;3.25;;;;;;;1.80;100.00;100298.59;4956812;28;20041;-79
2022/04/09 04:19:02;;;;;;;17.08;2.42;;;;;;;1.75;100.00;100300.91;4977687;28;20064;-79
2022/04/09 04:21:28;;;;;;;7.32;2.28;;;;;;;1.87;100.00;100311.00;4981517;28;20099;-79
2022/04/09 04:23:53;;;;;;;13.55;2.85;;;;;;;1.91;100.00;100303.53;4970317;28;20050;-78
2022/04/09 04:26:19;;;;;;;15.27;2.53;;;;;;;2.03;100.00;100312.78;4974383;28;20091;-79
2022/04/09 04:28:48;;;;;;;14.00;2.28;;;;;;;2.22;100.00;100318.72;4954975;28;20515;-79
2022/04/09 04:31:17;;;;;;;20.55;2.95;;;;;;;2.33;100.00;100326.31;4967510;28;20033;-79
2022/04/09 04:33:43;;;;;;;13.93;2.58;;;;;;;2.49;100.00;100347.53;4938336;28;20136;-79
2022/04/09 04:36:09;;;;;;;18.60;2.88;;;;;;;2.57;100.00;100334.19;4953681;28;20135;-79
2022/04/09 04:38:34;;;;;;;13.32;2.22;;;;;;;2.53;100.00;100330.25;4959863;28;20034;-77
2022/04/09 04:41:01;;;;;;;17.33;3.28;;;;;;;2.48;100.00;100340.53;4961835;28;20030;-79
2022/04/09 04:43:26;;;;;;;14.48;2.30;;;;;;;2.49;100.00;100341.38;4951897;28;21424;-79
2022/04/09 04:45:52;;;;;;;13.40;2.45;;;;;;;2.38;100.00;100339.91;4950765;28;20050;-79
2022/04/09 04:48:20;;;;;;;12.50;2.13;;;;;;;2.29;100.00;100348.94;4966687;28;20029;-79
2022/04/09 04:50:46;;;;;;;20.63;2.42;;;;;;;2.10;100.00;100352.78;4954218;28;20053;-79
2022/04/09 04:53:11;;;;;;;15.02;2.63;;;;;;;1.93;100.00;100354.69;4969660;28;20182;-79
2022/04/09 04:55:36;;;;;;;17.00;2.30;;;;;;;1.81;100.00;100356.81;4937196;28;20152;-79
2022/04/09 04:58:02;;;;;;;9.82;2.03;;;;;;;1.78;100.00;100359.00;4968391;28;20091;-78
2022/04/09 05:00:27;;;;;;;12.93;2.40;;;;;;;1.75;100.00;100370.78;4970164;28;20405;-78
2022/04/09 05:02:53;;;;;;;20.35;2.17;;;;;;;1.77;100.00;100362.66;4951207;28;20386;-78
2022/04/09 05:05:19;;;;;;;19.17;2.50;;;;;;;1.78;100.00;100370.44;4967425;28;20128;-78
2022/04/09 05:07:46;;;;;;;19.58;3.65;;;;;;;1.78;100.00;100361.66;4953372;28;20683;-79
2022/04/09 05:10:14;;;;;;;19.23;2.45;;;;;;;1.83;100.00;100373.44;4969038;28;20030;-79
2022/04/09 05:12:40;;;;;;;16.23;2.80;;;;;;;1.82;100.00;100376.25;4937947;28;20050;-79
2022/04/09 05:15:07;;;;;;;18.35;2.70;;;;;;;1.82;100.00;100377.06;4967326;28;23366;-78
2022/04/09 05:17:32;;;;;;;12.13;2.50;;;;;;;1.85;100.00;100373.25;4952822;28;20520;-78
2022/04/09 05:19:58;;;;;;;17.25;2.05;;;;;;;1.95;100.00;100376.56;4966501;28;20052;-78
2022/04/09 05:22:27;;;;;;;12.60;2.50;;;;;;;1.98;100.00;100368.25;4967034;28;20029;-78
2022/04/09 05:24:53;;;;;;;17.38;2.25;;;;;;;2.33;100.00;100387.47;4948221;28;20085;-79
2022/04/09 05:27:18;;;;;;;11.65;2.45;;;;;;;2.73;100.00;100393.63;4968170;28;20035;-78
2022/04/09 05:29:44;;;;;;;13.32;2.72;;;;;;;3.13;100.00;100392.59;4951793;28;20054;-79
2022/04/09 05:32:10;;;;;;;11.57;2.35;;;;;;;3.51;100.00;100411.31;4971237;28;20042;-79
2022/04/09 05:34:35;;;;;;;17.33;2.63;;;;;;;3.70;100.00;100394.03;4958721;28;20064;-78
2022/04/09 05:37:01;;;;;;;23.88;2.60;;;;;;;3.92;100.00;100406.50;4974955;28;20256;-80
2022/04/09 05:39:26;;;;;;;10.07;2.03;;;;;;;4.02;100.00;100404.41;4956320;28;20041;-79
2022/04/09 05:41:51;;;;;;;16.90;2.25;;;;;;;3.79;100.00;100414.25;4971150;28;20778;-80
2022/04/09 05:44:17;;;;;;;11.20;2.10;;;;;;;3.48;100.00;100417.84;4972503;28;20077;-80
2022/04/09 05:46:42;;;;;;;14.18;2.28;;;;;;;3.37;100.00;100420.91;4978520;28;20045;-80
2022/04/09 05:49:08;;;;;;;14.07;2.15;;;;;;;3.43;100.00;100430.84;4988607;28;20044;-80
2022/04/09 05:51:34;;;;;;;17.00;1.95;;;;;;;3.56;100.00;100425.75;4961284;28;20089;-80
2022/04/09 05:53:59;;;;;;;17.02;2.22;;;;;;;3.68;100.00;100439.47;4967550;28;20115;-80
2022/04/09 05:56:25;;;;;;;17.23;2.60;;;;;;;3.67;100.00;100474.31;4954172;28;20595;-81
2022/04/09 05:58:51;;;;;;;29.75;6.03;;;;;;;3.53;100.00;100476.72;4944987;28;20045;-77
2022/04/09 06:01:16;;;;;;;10.10;1.90;;;;;;;3.48;100.00;100481.75;4930792;28;20038;-80
2022/04/09 06:03:41;;;;;;;18.48;5.30;;;;;;;3.53;100.00;100484.69;4960777;28;20057;-81
2022/04/09 06:06:08;;;;;;;31.25;7.70;;;;;;;3.54;100.00;100483.69;4965599;28;20131;-79
2022/04/09 06:08:34;;;;;;;13.45;2.20;;;;;;;3.47;100.00;100472.09;4952501;28;20766;-79
2022/04/09 06:11:00;;;;;;;13.65;1.92;;;;;;;3.51;100.00;100475.22;4969373;28;20026;-80
2022/04/09 06:13:26;;;;;;;16.88;2.38;;;;;;;4.16;100.00;100463.25;4954080;28;23647;-80
2022/04/09 06:15:52;;;;;;;8.90;1.73;;;;;;;4.79;100.00;100469.97;4981162;28;20041;-80
2022/04/09 06:18:17;;;;;;;14.35;1.98;;;;;;;5.96;100.00;100472.56;4978426;28;20118;-82
2022/04/09 06:20:43;;;;;;;8.50;1.40;;;;;;;7.37;100.00;100476.78;5003895;28;20042;-82
2022/04/09 06:23:08;;;;;;;15.38;1.98;;;;;;;8.54;100.00;100477.38;4987225;28;20034;-79
2022/04/09 06:25:34;;;;;;;7.45;1.30;;;;;;;9.39;100.00;100485.38;4957645;28;20069;-82
2022/04/09 06:27:59;;;;;;;12.45;2.00;;;;;;;9.01;100.00;100488.81;4974739;28;20034;-80
2022/04/09 06:30:25;;;;;;;10.13;1.67;;;;;;;7.66;100.00;100501.63;4963434;28;20651;-80
2022/04/09 06:32:51;;;;;;;7.18;1.13;;;;;;;6.30;100.00;100495.09;5003305;28;20026;-80
2022/04/09 06:35:17;;;;;;;8.60;1.33;;;;;;;5.39;100.00;100505.44;4968244;28;20099;-80
2022/04/09 06:37:45;;;;;;;8.30;1.30;;;;;;;4.84;100.00;100509.44;4985110;28;20761;-79
2022/04/09 06:40:11;;;;;;;11.43;2.15;;;;;;;4.61;100.00;100504.19;4952408;28;20070;-79
2022/04/09 06:42:37;;;;;;;10.50;2.20;;;;;;;4.72;100.00;100511.72;4968002;28;20472;-80
2022/04/09 06:45:03;;;;;;;12.18;2.08;;;;;;;5.80;100.00;100511.06;4952053;28;20075;-79
2022/04/09 06:47:28;;;;;;;13.77;2.90;;;;;;;7.26;100.00;100514.03;4949516;28;20094;-79
2022/04/09 06:49:54;;;;;;;14.70;2.38;;;;;;;8.64;100.00;100509.97;4965006;28;20030;-78
2022/04/09 06:52:19;;;;;;;11.75;2.72;;;;;;;9.88;100.00;100527.75;4956682;28;20049;-80
2022/04/09 06:54:45;;;;;;;16.10;2.50;;;;;;;10.92;100.00;100512.06;4963043;28;20037;-79
2022/04/09 06:57:10;;;;;;;14.48;2.50;;;;;;;11.91;100.00;100528.91;4968747;28;20053;-79
2022/04/09 06:59:36;;;;;;;11.68;1.75;;;;;;;10.87;100.00;100533.44;4964788;28;20105;-79
2022/04/09 07:02:01;;;;;;;13.07;2.30;;;;;;;9.05;100.00;100538.41;4975421;28;20133;-80
2022/04/09 07:04:27;;;;;;;11.00;2.45;;;;;;;7.36;100.00;100538.59;4981545;28;20054;-80
2022/04/09 07:06:52;;;;;;;19.30;3.70;;;;;;;6.37;100.00;100549.47;4987515;28;20033;-81
2022/04/09 07:09:18;;;;;;;17.52;2.83;;;;;;;5.92;100.00;100551.47;4982910;28;20049;-81
2022/04/09 07:11:46;;;;;;;23.48;2.80;;;;;;;5.71;100.00;100561.09;4999922;28;20235;-81
2022/04/09 07:14:11;;;;;;;16.55;3.17;;;;;;;5.47;100.00;100556.09;4959726;28;20049;-81
2022/04/09 07:16:38;;;;;;;26.08;3.10;;;;;;;5.93;100.00;100559.34;4977532;28;20045;-80
2022/04/09 07:19:07;;;;;;;20.23;2.38;;;;;;;7.44;100.00;100562.56;4957515;28;20045;-80
2022/04/09 07:21:33;;;;;;;20.65;2.78;;;;;;;7.80;100.00;100564.16;4968498;28;20509;-80
2022/04/09 07:23:58;;;;;;;15.63;2.40;;;;;;;7.98;100.00;100572.44;4965317;28;20032;-79
2022/04/09 07:26:23;;;;;;;12.60;1.90;;;;;;;7.81;100.00;100585.38;4953482;28;20049;-80
2022/04/09 07:28:49;;;;;;;16.83;2.40;;;;;;;6.71;100.00;100567.47;4970061;28;20037;-77
2022/04/09 07:31:14;;;;;;;13.45;2.85;;;;;;;6.01;100.00;100585.13;4959924;28;20052;-79
2022/04/09 07:33:40;;;;;;;18.70;2.83;;;;;;;5.64;100.00;100570.88;5009543;28;20109;-81
2022/04/09 07:36:06;;;;;;;17.00;2.60;;;;;;;5.55;100.00;100571.19;4995089;28;20103;-81
2022/04/09 07:38:31;;;;;;;17.45;2.88;;;;;;;6.89;100.00;100575.84;5010310;28;20099;-80
2022/04/09 07:40:57;;;;;;;15.40;2.58;;;;;;;8.70;100.00;100578.94;4984288;28;23828;-80
2022/04/09 07:43:22;;;;;;;16.60;2.70;;;;;;;9.82;100.00;100581.59;4976238;28;20355;-79
2022/04/09 07:45:47;;;;;;;11.70;2.22;;;;;;;10.49;100.00;100574.78;4969213;28;20069;-79
2022/04/09 07:48:13;;;;;;;17.33;4.80;;;;;;;10.46;100.00;100580.63;4950712;28;20390;-78
2022/04/09 07:50:39;;;;;;;13.43;2.30;;;;;;;10.85;100.00;100584.03;4970882;28;20481;-77
2022/04/09 07:53:05;;;;;;;20.08;4.18;;;;;;;10.91;100.00;100585.84;4949595;28;20073;-77
2022/04/09 07:55:30;;;;;;;11.70;2.92;;;;;;;9.83;100.00;100600.22;4953647;28;20134;-78
2022/04/09 07:57:56;;;;;;;19.42;3.97;;;;;;;9.42;100.00;100595.19;4939657;28;20060;-78
2022/04/09 08:00:22;;;;;;;15.50;2.58;;;;;;;8.80;100.00;100613.47;4963045;28;20037;-77
2022/04/09 08:02:47;;;;;;;21.02;3.00;;;;;;;9.37;100.00;100606.59;4967113;28;20156;-77
2022/04/09 08:05:13;;;;;;;12.70;2.58;;;;;;;9.90;100.00;100619.84;4959679;28;20093;-77
2022/04/09 08:07:39;;;;;;;21.33;4.40;;;;;;;10.49;100.00;100616.03;4967485;28;20033;-77
2022/04/09 08:10:05;;;;;;;28.50;7.32;;;;;;;11.08;100.00;100629.22;4952725;28;20986;-77
2022/04/09 08:12:31;;;;;;;24.17;6.35;;;;;;;11.26;100.00;100625.75;4967330;28;20040;-77
2022/04/09 08:14:57;;;;;;;22.27;4.32;;;;;;;11.16;100.00;100631.63;4952574;28;20551;-76
2022/04/09 08:17:22;;;;;;;12.65;2.38;;;;;;;11.07;98.52;100633.78;4952946;28;20136;-77
2022/04/09 08:19:48;;;;;;;14.48;3.40;;;;;;;11.30;91.57;100640.41;4950134;28;20050;-76
2022/04/09 08:22:14;;;;;;;26.98;7.55;;;;;;;11.27;100.00;100638.16;4965451;28;20160;-76
2022/04/09 08:24:41;;;;;;;11.65;1.90;;;;;;;11.65;85.72;100646.91;4968520;28;20029;-75
2022/04/09 08:27:09;;;;;;;24.33;4.13;;;;;;;11.34;93.34;100649.75;4957392;28;20156;-75
2022/04/09 08:29:35;;;;;;;20.23;6.13;;;;;;;10.96;98.66;100637.22;4968799;28;20034;-74
2022/04/09 08:32:01;;;;;;;19.25;3.97;;;;;;;9.72;100.00;100634.00;4949372;28;20053;-75
2022/04/09 08:34:29;;;;;;;21.98;4.75;;;;;;;9.07;100.00;100662.63;4965201;28;20046;-75
2022/04/09 08:36:55;;;;;;;25.92;7.40;;;;;;;8.24;100.00;100654.84;4951830;28;20120;-74
2022/04/09 08:39:22;;;;;;;29.73;6.75;;;;;;;8.73;100.00;100675.22;4964448;28;20175;-76
2022/04/09 08:41:47;;;;;;;32.90;8.13;;;;;;;9.99;100.00;100668.84;4952445;28;20099;-77
2022/04/09 08:44:13;;;;;;;28.70;5.82;;;;;;;9.62;92.54;100663.19;4966694;28;20501;-76
2022/04/09 08:46:40;;;;;;;19.80;5.05;;;;;;;9.99;88.02;100663.47;4967527;28;20067;-78
2022/04/09 08:49:06;;;;;;;27.00;9.43;;;;;;;9.40;92.05;100667.97;4948207;28;20046;-77
2022/04/09 08:51:32;;;;;;;8.55;1.92;;;;;;;9.27;100.00;100690.34;4967731;28;20167;-76
2022/04/09 08:54:00;;;;;;;12.45;2.25;;;;;;;8.90;100.00;100696.31;4949558;28;20100;-76
2022/04/09 08:56:26;;;;;;;11.85;2.35;;;;;;;8.34;100.00;100698.22;4966431;28;20043;-76
2022/04/09 08:58:52;;;;;;;21.98;5.00;;;;;;;9.00;100.00;100688.69;4952557;28;20144;-76
2022/04/09 09:01:20;;;;;;;24.17;7.78;;;;;;;10.32;93.55;100682.22;4962860;28;20053;-76
2022/04/09 09:03:46;;;;;;;18.45;6.28;;;;;;;10.50;86.13;100678.78;4957451;28;20075;-77
2022/04/09 09:06:29;;;;;;;20.33;4.38;;;;;;;10.71;74.11;100681.13;4961907;28;20458;-76
2022/04/09 09:09:00;;;;;;;28.58;9.60;;;;;;;9.88;84.73;100704.50;4970359;28;20144;-77
2022/04/09 09:11:27;;;;;;;6.68;1.35;;;;;;;8.12;100.00;100715.50;4951169;28;20111;-77
2022/04/09 09:13:57;;;;;;;11.10;1.83;;;;;;;6.65;100.00;100728.81;4971400;28;20602;-79
2022/04/09 09:16:25;;;;;;;9.50;1.42;;;;;;;5.72;100.00;100755.22;4954062;28;20103;-78
2022/04/09 09:18:51;;;;;;;10.48;1.17;;;;;;;5.07;100.00;100729.09;5004181;28;20041;-80
2022/04/09 09:21:19;;;;;;;10.73;1.45;;;;;;;4.71;100.00;100744.91;5033463;28;20068;-80
2022/04/09 09:23:44;;;;;;;14.73;4.65;;;;;;;4.69;100.00;100749.56;5022179;28;20036;-81
2022/04/09 09:26:19;;;;;;;11.55;2.05;;;;;;;4.88;100.00;100741.09;4986195;28;20049;-79
2022/04/09 09:28:54;;;;;;;4.63;0.77;;;;;;;5.92;100.00;100746.63;4982038;28;20030;-82
2022/04/09 09:31:19;;;;;;;4.22;0.90;;;;;;;6.94;100.00;100743.94;4978015;28;20034;-81
2022/04/09 09:33:49;;;;;;;4.35;0.80;;;;;;;7.81;100.00;100746.28;4961388;28;20510;-81
2022/04/09 09:36:14;;;;;;;12.52;4.88;;;;;;;8.40;100.00;100744.97;4969462;28;20209;-81
2022/04/09 09:38:40;;;;;;;5.97;1.65;;;;;;;9.00;100.00;100742.41;4954663;28;20061;-80
2022/04/09 09:41:21;;;;;;;13.25;3.58;;;;;;;9.26;100.00;100750.47;4967855;28;20033;-80
2022/04/09 09:44:00;;;;;;;14.63;3.80;;;;;;;9.57;100.00;100743.66;4954293;28;20183;-81
2022/04/09 09:46:26;;;;;;;19.17;6.68;;;;;;;9.87;100.00;100745.91;4966016;28;23446;-80
2022/04/09 09:48:51;;;;;;;12.35;4.13;;;;;;;10.18;100.00;100732.56;4951891;28;20057;-80
2022/04/09 09:51:22;;;;;;;19.23;8.13;;;;;;;10.27;100.00;100731.28;4968485;28;20223;-80
2022/04/09 09:53:48;;;;;;;21.50;8.50;;;;;;;9.96;100.00;100741.94;4937146;28;20037;-79
2022/04/09 09:56:14;;;;;;;15.82;4.68;;;;;;;10.24;100.00;100742.44;4969659;28;20069;-79
2022/04/09 09:58:40;;;;;;;17.90;5.60;;;;;;;9.64;100.00;100746.34;4979777;28;24061;-79
2022/04/09 10:01:07;;;;;;;18.05;4.68;;;;;;;8.44;100.00;100746.22;4953841;28;20049;-79
2022/04/09 10:03:33;;;;;;;20.38;4.90;;;;;;;7.38;100.00;100773.19;4966377;28;20924;-80
2022/04/09 10:05:58;;;;;;;23.02;8.25;;;;;;;6.63;100.00;100769.19;4960317;28;20121;-79
2022/04/09 10:08:24;;;;;;;29.33;11.15;;;;;;;6.17;100.00;100749.88;4980012;28;20047;-82
2022/04/09 10:10:51;;;;;;;25.88;7.15;;;;;;;6.04;100.00;100784.47;4962898;28;20053;-81
2022/04/09 10:13:21;;;;;;;12.27;3.72;;;;;;;6.12;100.00;100779.03;4974849;28;20034;-80
2022/04/09 10:15:50;;;;;;;25.60;7.00;;;;;;;6.22;100.00;100787.59;4939090;28;20030;-80
2022/04/09 10:18:21;;;;;;;22.38;7.68;;;;;;;6.61;100.00;100783.75;4967277;28;20036;-79
2022/04/09 10:20:55;;;;;;;16.23;6.35;;;;;;;7.54;100.00;100765.88;4967053;28;20045;-79
2022/04/09 10:23:22;;;;;;;4.30;1.42;;;;;;;8.27;100.00;100794.00;4945064;28;20045;-77
2022/04/09 10:25:51;;;;;;;12.55;5.30;;;;;;;8.64;100.00;100773.13;4964476;28;20072;-78
2022/04/09 10:28:29;;;;;;;11.20;5.35;;;;;;;8.55;100.00;100795.81;4947440;28;20050;-78
2022/04/09 10:30:54;;;;;;;17.85;6.68;;;;;;;8.89;100.00;100802.94;4963792;28;20026;-79
2022/04/09 10:33:22;;;;;;;17.63;5.63;;;;;;;9.00;100.00;100821.16;4951392;28;20513;-78
2022/04/09 10:35:49;;;;;;;5.80;1.58;;;;;;;8.51;100.00;100811.50;4948755;28;20038;-78
2022/04/09 10:38:24;;;;;;;9.88;3.25;;;;;;;9.31;100.00;100817.91;4914484;28;20045;-78
2022/04/09 10:40:49;;;;;;;10.02;1.92;;;;;;;8.98;100.00;100820.53;4966634;28;20855;-79
2022/04/09 10:43:20;;;;;;;7.65;1.48;;;;;;;8.80;100.00;100821.09;4959888;28;20030;-78
2022/04/09 10:46:10;;;;;;;6.30;1.50;;;;;;;8.86;100.00;100832.91;4968058;28;20073;-77
2022/04/09 10:48:36;;;;;;;11.85;1.58;;;;;;;9.22;100.00;100826.38;4968103;28;20037;-78
2022/04/09 10:51:07;;;;;;;8.40;1.52;;;;;;;9.55;100.00;100818.34;4942106;28;20532;-78
2022/04/09 10:53:39;;;;;;;9.50;3.03;;;;;;;10.27;100.00;100828.22;4957191;28;20183;-78
2022/04/09 10:56:15;;;;;;;6.60;1.80;;;;;;;9.94;100.00;100844.41;4951974;28;20060;-78
2022/04/09 10:59:09;;;;;;;6.47;2.05;;;;;;;10.22;100.00;100846.84;4968928;28;20045;-77
2022/04/09 11:01:46;;;;;;;16.20;4.35;;;;;;;11.05;100.00;100832.66;4949047;28;20501;-78
2022/04/09 11:04:36;;;;;;;12.32;5.13;;;;;;;11.06;89.12;100837.03;4971412;28;20572;-77
2022/04/09 11:07:18;;;;;;;12.65;3.95;;;;;;;10.20;100.00;100848.91;4953169;28;20057;-79
2022/04/09 11:09:50;;;;;;;7.63;2.97;;;;;;;10.71;92.11;100837.41;4967021;28;20770;-78
2022/04/09 11:12:42;;;;;;;7.07;2.40;;;;;;;10.60;69.49;100843.47;4956356;28;20084;-77
2022/04/09 11:15:15;;;;;;;13.43;5.50;;;;;;;10.47;83.02;100840.81;4967277;28;20111;-78